KSTJ/STJ METAR and TAF weather

Enter ICAO airport designator
Station Type Date Time Source
KSTJ METAR 2022/12/04 05:53 UTC NOAA

KSTJ 040553Z AUTO 19003KT 10SM CLR M06/M09 A3039 RMK AO2 SLP303 T10561094 11033 21072 400001111 56015


Station Type Date Time Source
KSTJ Decoded METAR 2022/12/04 05:53 UTC NOAA

ROSECRANS MEMORIAL AIRPORT, MO, United States (KSTJ) 39-46N 94-55W 247M
Dec 04, 2022 - 12:53 AM EST / 2022.12.04 0553 UTC
Wind: from the S (190 degrees) at 3 MPH (3 KT):0
Visibility: 10 mile(s):0
Sky conditions: clear
Temperature: 21.9 F (-5.6 C)
Dew Point: 15.1 F (-9.4 C)
Relative Humidity: 74%
Pressure (altimeter): 30.39 in. Hg (1029 hPa)
Pressure tendency: 0.04 inches (1.5 hPa) lower than three hours ago
ob: KSTJ 040553Z AUTO 19003KT 10SM CLR M06/M09 A3039 RMK AO2 SLP303 T10561094 11033 21072 400001111 56015
cycle: 6

Station Type Date Time Source
KSTJ TAF 2022/12/04 06:22 UTC NOAA

TAF KSTJ 040520Z 0406/0506 18006KT P6SM SCT150

Example: see airport list